Staley, NC (27355)

3:18 PM EST on February 14, 2016 (GMT -0500)
Bogieland Ranch Victory Lane | | Change Station
CLOSE
Current Station
Personal Weather Station
Location: Siler City, NC
Elevation: 531 ft
Nearby Weather Stations
Active Advisory: Winter Storm Watch

Elev 531 ft 35.71 °N, 79.54 °W | Updated 11 minutes ago

Overcast
Overcast
31.5 °F
Feels Like 32 °F
N
0.0
Wind Variable Wind from West

Today
High -- | Low -- °F
--% Chance of Precip.
Yesterday
High -- | Low -- °F
Precip. -- in
Pressure 30.45 in
Visibility 10.0 miles
Clouds Few 7500 ft
Mostly Cloudy 11000 ft
Windchill 32 °F
Dew Point 2 °F
Humidity 28%
Rainfall 0.00 in
Snow Depth Not available.
7:06 AM 5:58 PM
Waxing Crescent, 45% visible
METAR KBUY 141954Z AUTO 16004KT 10SM FEW075 BKN110 M02/M20 A3042 RMK AO2 SLP309 T10221200
Pressure 30.45 in
Visibility 10.0 miles
Clouds Few 7500 ft
Mostly Cloudy 11000 ft
Windchill 32 °F
Dew Point 2 °F
Humidity 28%
Rainfall 0.00 in
Snow Depth Not available.
7:06 AM 5:58 PM
Waxing Crescent, 45% visible
METAR KBUY 141954Z AUTO 16004KT 10SM FEW075 BKN110 M02/M20 A3042 RMK AO2 SLP309 T10221200

10-Day Weather Forecast

Almanac

Astronomy

Feb. 14, 2016 Rise Set
Actual Time
Civil Twilight
Nautical Twilight
Astronomical Twilight
Moon
Length of Visible Light
Length of Day
Tomorrow will be .
, % of the Moon is Illuminated

Today's Extremes

State Highs State Lows

Community

WunderPhotos

Upload Photos

1,892,880 photos uploaded!

WunderBlog® & News

Nearby

Air Quality

  Air Quality AQ Index Pollutant
Not available.

Snow Depth

Station Depth Elevation

Earthquake Activity

City Distance Mag. Time & Date
Minimum magnitude displayed is 2.5.

Coastal Water Temperatures

Place Temperature

Stations

Nearby Weather Stations

Station Location Temp. Windchill Dew Point Humidity Wind Precip. Elev Updated Type
                   

Watches & Warnings

Winter Storm Watch
Issued: 4:52 AM EST Feb. 14, 2016 – National Weather Service

... Winter Storm Watch remains in effect from late tonight through
Monday evening...

* locations... all of the northwest Piedmont including The Triad
region... Asheboro... and Roxboro.

* Hazard types... precipitation will start out as light snow
Sunday night before trending to sleet then freezing rain
Monday morning... and to just rain Monday evening.

* Accumulations... snow accumulation of 1 to 3 inches... along with
around a tenth of an inch of ice.

* Timing... wintry precipitation is expected to start late this
evening... and continue through tonight and much of Monday
before it transitions to all rain Monday evening.

* Impacts... travel may become difficult in this area tonight
through Monday evening.

Precautionary/preparedness actions...

A Winter Storm Watch means there is a potential for significant
snow... sleet... or ice accumulations that may impact travel.
Continue to monitor the latest forecasts.